Pagina principale
METAR-TAF:

METAR-TAF

Aeroporti :

Tabarka, Tunisia

latitudine: 36-57N, longitudine: 008-45E, altezza: 20 m

Osservazione

Il bollettino è stato emesso 57 minuti fa, alle 12:00 UTC
Vento 17 kt da ovest/sud-ovest
Temperature
Pressione 1026 hPa
Visibilità 10 km o più
Nubi sparse ad un'altezza di 2000 ft
Nubi sparse ad un'altezza di 3000 ft

METAR: DTKA 161200Z 25017KT 9999 SCT020 SCT030 15??9 Q1026 NOSIG

Ora: 13:57 (12:57 UTC)

Previsione

Il bollettino è stato emesso 43 minuti fa, alle 12:14 UTC
Previsione valida dal 16 alle 13 UTC al 16 alle 22 UTC
Vento 19 kt da ovest/sud-ovest
Visibilità 10 km o più
Nubi sparse ad un'altezza di 2000 ft
Evoluzione graduale
dal 16 alle 18 UTC al 16 alle 20 UTC
Vento 8 kt da ovest

TAF: DTKA 161214Z 1613/1622 24019KT 9999 SCT020 BECMG 1618/1620 27008KT

Osservazioni e previsioni meteorologiche di più di 4000 aeroporti (messaggi METAR e TAF).

Le stazioni disponibili sono rappresentate dai dischi gialli e rossi sulla carta.

Puntare il mouse per vedere il nome della stazione.

Clicca sopra per visualizzare le osservazioni e previsioni meteorologiche.

Per cambiare la mappa : fare clic sui pulsanti verdi con una croce nera per ingrandire, il pulsante verde con un trattino per diminuire, o sulla freccia verde per le mappe adiacenti.


METAR-TAF: